Time;durP1;ratioP1;P1;durP2;ratioP2;P2;SDS_P1;SDS_P2;PMS_P1;PMS_P2;Temp;Humidity;BMP_temperature;BMP_pressure;BME280_temperature;BME280_humidity;BME280_pressure;Samples;Min_cycle;Max_cycle;Signal;HPM_P1;HPM_P2
2022/09/03 00:08:50;;;;;;;8.30;2.50;;;;;;;9.87;62.97;98970.45;433237;1270;108822;-41
2022/09/03 00:19:01;;;;;;;4.70;3.10;;;;;;;9.65;63.60;98967.41;432708;1270;98048;-41
2022/09/03 00:29:10;;;;;;;7.20;3.80;;;;;;;9.39;64.14;98960.26;432447;1270;108829;-40
2022/09/03 00:39:19;;;;;;;7.30;2.50;;;;;;;9.09;64.35;98955.27;433322;1270;98886;-41
2022/09/03 00:49:25;;;;;;;;;;;;;;;8.89;65.02;98951.54;432942;1269;112442;-40
2022/09/03 00:59:31;;;;;;;7.40;3.20;;;;;;;8.82;65.43;98943.50;433230;1269;108862;-41
2022/09/03 01:09:47;;;;;;;7.40;3.80;;;;;;;8.71;65.79;98950.70;433315;1269;98084;-43
2022/09/03 01:19:58;;;;;;;5.40;3.20;;;;;;;8.36;65.83;98949.83;433587;1258;108017;-41
2022/09/03 01:30:06;;;;;;;6.70;3.00;;;;;;;8.21;66.37;98953.56;433332;1269;97973;-41
2022/09/03 01:40:11;;;;;;;6.10;3.90;;;;;;;8.33;66.97;98941.65;432470;1270;112393;-41
2022/09/03 01:50:22;;;;;;;7.90;4.20;;;;;;;8.33;67.04;98944.89;433131;1271;108733;-41
2022/09/03 02:00:33;;;;;;;6.80;4.10;;;;;;;8.10;67.33;98938.59;432435;1270;99238;-41
2022/09/03 02:10:41;;;;;;;6.10;3.90;;;;;;;8.04;67.77;98943.05;433068;1270;108908;-40
2022/09/03 02:20:47;;;;;;;6.10;3.30;;;;;;;7.93;67.92;98942.29;432880;1270;98008;-41
2022/09/03 02:30:55;;;;;;;5.40;2.30;;;;;;;7.83;67.95;98939.83;432365;1270;112467;-43
2022/09/03 02:41:02;;;;;;;6.30;2.60;;;;;;;7.68;68.19;98940.37;433102;1270;108683;-40
2022/09/03 02:51:10;;;;;;;7.00;2.80;;;;;;;7.59;68.71;98932.06;433209;1269;99229;-40
2022/09/03 03:01:20;;;;;;;6.60;2.60;;;;;;;7.57;68.87;98929.13;432720;1270;108859;-40
2022/09/03 03:11:30;;;;;;;4.30;2.40;;;;;;;7.57;68.86;98938.84;432957;1270;99392;-41
2022/09/03 03:21:37;;;;;;;6.00;3.00;;;;;;;7.54;69.19;98936.39;432953;1270;112460;-42
2022/09/03 03:31:44;;;;;;;6.10;3.80;;;;;;;7.27;69.21;98950.70;432868;1270;107304;-42
2022/09/03 03:41:52;;;;;;;4.30;3.00;;;;;;;7.01;69.47;98952.39;433002;1270;99238;-41
2022/09/03 03:52:01;;;;;;;5.70;3.00;;;;;;;6.95;69.71;98957.20;433029;1270;108318;-41
2022/09/03 04:02:09;;;;;;;7.40;3.10;;;;;;;6.99;70.04;98948.86;433159;1270;99231;-40
2022/09/03 04:12:18;;;;;;;8.10;3.80;;;;;;;7.15;70.22;98950.05;432459;1270;112378;-41
2022/09/03 04:22:25;;;;;;;7.80;3.00;;;;;;;7.22;70.29;98951.46;433105;1269;108682;-41
2022/09/03 04:53:06;;;;;;;8.10;3.30;;;;;;;7.25;70.33;98945.04;433236;1270;99248;-41
2022/09/03 05:03:14;;;;;;;7.50;3.90;;;;;;;7.54;70.75;98954.62;432749;1270;112384;-41
2022/09/03 05:13:21;;;;;;;10.10;4.30;;;;;;;8.20;71.18;98959.52;432964;1270;108885;-42
2022/09/03 05:33:35;;;;;;;9.70;3.70;;;;;;;12.18;70.23;98968.02;433010;1269;107230;-40
2022/09/03 05:43:43;;;;;;;9.70;3.40;;;;;;;13.50;68.82;98970.08;432511;1270;99229;-40
2022/09/03 05:53:52;;;;;;;5.10;3.70;;;;;;;14.18;66.41;98969.98;433085;1271;111457;-41
2022/09/03 06:04:01;;;;;;;6.60;3.00;;;;;;;14.67;64.61;98973.10;433229;1271;108819;-42
2022/09/03 06:14:10;;;;;;;10.60;3.30;;;;;;;14.78;62.60;98969.27;432123;1269;1358087;-43
2022/09/03 06:24:18;;;;;;;11.90;3.80;;;;;;;15.29;62.42;98970.86;432968;1269;108479;-41
2022/09/03 06:34:27;;;;;;;8.00;3.30;;;;;;;16.27;61.62;98961.19;432227;1270;99231;-41
2022/09/03 06:44:34;;;;;;;5.00;3.60;;;;;;;16.54;59.98;98962.48;433095;1271;112355;-39
2022/09/03 06:54:41;;;;;;;6.40;4.00;;;;;;;16.81;59.90;98972.42;433217;1270;109385;-40
2022/09/03 07:14:55;;;;;;;10.10;4.40;;;;;;;17.45;59.68;98971.63;432797;1271;109220;-40
2022/09/03 07:25:02;;;;;;;7.50;4.40;;;;;;;17.71;58.51;98975.09;432981;1271;99240;-41
2022/09/03 07:35:09;;;;;;;6.90;3.90;;;;;;;17.49;58.45;98982.32;432866;1271;112609;-41
2022/09/03 07:45:15;;;;;;;9.80;4.00;;;;;;;17.61;58.63;98982.08;432819;1271;108901;-40
2022/09/03 07:55:22;;;;;;;7.80;4.30;;;;;;;17.72;58.66;98975.02;432472;1271;99795;-42
2022/09/03 08:05:31;;;;;;;8.70;5.30;;;;;;;18.00;58.42;98977.80;432358;1270;108834;-42
2022/09/03 08:15:41;;;;;;;9.00;4.50;;;;;;;18.27;57.88;98987.94;432440;1271;98815;-42
2022/09/03 08:25:49;;;;;;;8.60;5.10;;;;;;;18.44;57.27;98993.52;432423;1270;112263;-41
2022/09/03 08:35:56;;;;;;;7.40;4.70;;;;;;;18.49;56.75;98994.52;432403;1270;109003;-39
2022/09/03 08:46:04;;;;;;;7.00;4.60;;;;;;;18.58;56.37;98993.27;432833;1269;99222;-41
2022/09/03 08:56:13;;;;;;;7.70;4.70;;;;;;;18.72;56.16;98978.88;432780;1270;111486;-40
2022/09/03 09:06:20;;;;;;;11.00;6.00;;;;;;;18.74;55.89;98972.39;432913;1270;108772;-41
2022/09/03 09:16:25;;;;;;;8.50;5.50;;;;;;;18.89;55.30;98969.01;432586;1270;99237;-41
2022/09/03 09:26:33;;;;;;;9.60;4.90;;;;;;;18.80;55.10;98961.29;432147;1270;108876;-40
2022/09/03 09:36:42;;;;;;;7.60;5.30;;;;;;;19.03;54.56;98958.38;432834;1270;99232;-40
2022/09/03 09:46:50;;;;;;;7.60;4.40;;;;;;;18.98;53.80;98968.69;432641;1270;111357;-41
2022/09/03 09:57:06;;;;;;;8.30;4.80;;;;;;;18.91;53.84;98959.24;432426;1271;107789;-41
2022/09/03 10:07:22;;;;;;;10.10;4.90;;;;;;;18.88;53.89;98962.95;433103;1269;97950;-42
2022/09/03 10:17:31;;;;;;;7.60;4.30;;;;;;;19.46;54.75;98951.67;433117;1270;109445;-40
2022/09/03 10:37:49;;;;;;;;;;;;;;;19.91;52.86;98935.43;433070;1269;112076;-41
2022/09/03 10:48:05;;;;;;;5.90;3.80;;;;;;;19.60;52.34;98937.20;432602;1270;109211;-39
2022/09/03 10:58:25;;;;;;;7.60;4.00;;;;;;;19.35;52.51;98933.56;432322;1269;97988;-40
2022/09/03 11:08:34;;;;;;;8.10;4.10;;;;;;;19.34;52.47;98925.00;432763;1270;109077;-40
2022/09/03 11:28:55;;;;;;;8.80;4.20;;;;;;;18.88;52.19;98931.98;432085;1270;112364;-40
2022/09/03 11:39:15;;;;;;;5.90;3.90;;;;;;;18.56;52.92;98937.04;432739;1270;108940;-40
2022/09/03 11:49:26;;;;;;;6.80;4.70;;;;;;;18.78;53.57;98926.89;432646;1270;99232;-42
2022/09/03 11:59:33;;;;;;;6.80;4.40;;;;;;;19.08;54.00;98911.13;432584;1270;108738;-42
2022/09/03 12:10:08;;;;;;;8.60;4.20;;;;;;;18.95;53.77;98907.04;432932;1270;98014;-41
2022/09/03 12:30:24;;;;;;;8.30;3.80;;;;;;;19.06;53.06;98886.80;432229;1270;108802;-40
2022/09/03 12:40:32;;;;;;;6.00;3.90;;;;;;;19.05;52.81;98884.89;433272;1269;98873;-40
2022/09/03 12:50:39;;;;;;;8.30;4.50;;;;;;;18.72;53.05;98891.23;432506;1270;108785;-42
2022/09/03 13:01:03;;;;;;;7.10;4.30;;;;;;;18.75;53.61;98887.91;432095;1270;99921;-42
2022/09/03 13:11:09;;;;;;;7.90;4.00;;;;;;;18.94;53.76;98882.87;433018;1269;112645;-41
2022/09/03 13:21:18;;;;;;;8.90;3.90;;;;;;;18.73;53.84;98884.66;432552;1270;109184;-41
2022/09/03 13:41:33;;;;;;;21.00;11.60;;;;;;;18.13;54.57;98888.14;432578;1270;108636;-40
2022/09/03 14:02:03;;;;;;;5.70;4.80;;;;;;;17.99;55.30;98884.44;433510;1270;112245;-41
2022/09/03 14:12:10;;;;;;;14.40;11.90;;;;;;;18.20;55.77;98879.39;432400;1270;108652;-41
2022/09/03 14:22:15;;;;;;;9.90;4.90;;;;;;;18.76;55.69;98877.50;432464;1270;98837;-39
2022/09/03 14:32:24;;;;;;;11.70;5.40;;;;;;;19.13;55.43;98866.22;432289;1270;107813;-41
2022/09/03 14:42:37;;;;;;;11.50;6.80;;;;;;;19.09;55.52;98868.50;432002;1270;99414;-41
2022/09/03 14:52:59;;;;;;;7.00;6.10;;;;;;;18.85;55.90;98863.91;433216;1269;112401;-42
2022/09/03 15:03:22;;;;;;;9.10;6.00;;;;;;;18.88;56.04;98859.80;433485;1268;108030;-42
2022/09/03 15:13:30;;;;;;;12.50;7.50;;;;;;;18.79;56.36;98852.63;432827;1270;99289;-40
2022/09/03 15:23:47;;;;;;;14.90;8.30;;;;;;;18.60;56.12;98849.88;432689;1270;108962;-39
2022/09/03 15:33:58;;;;;;;8.60;5.40;;;;;;;18.41;55.95;98855.74;433235;1269;99234;-40
2022/09/03 15:44:07;;;;;;;14.00;6.90;;;;;;;18.22;55.73;98852.73;433323;1270;112499;-43
2022/09/03 15:54:14;;;;;;;21.20;10.10;;;;;;;17.96;56.08;98854.31;432499;1270;108878;-40
2022/09/03 16:04:23;;;;;;;15.30;7.50;;;;;;;17.90;56.47;98854.38;432464;1270;98005;-40
2022/09/03 16:14:29;;;;;;;12.90;7.70;;;;;;;17.89;56.55;98855.98;431993;1270;108802;-41
2022/09/03 16:34:41;;;;;;;12.10;7.00;;;;;;;17.71;56.95;98857.09;432950;1270;112663;-43
2022/09/03 16:44:49;;;;;;;8.80;7.10;;;;;;;17.56;57.43;98862.17;432592;1270;108769;-42
2022/09/03 16:55:05;;;;;;;8.60;6.20;;;;;;;17.37;57.43;98865.29;432760;1270;98837;-41
2022/09/03 17:05:19;;;;;;;11.60;6.90;;;;;;;17.18;57.90;98860.27;433084;1270;112496;-40
2022/09/03 17:15:34;;;;;;;9.70;6.30;;;;;;;16.91;58.43;98862.73;432862;1270;107838;-41
2022/09/03 17:25:50;;;;;;;10.40;6.80;;;;;;;16.65;58.62;98860.96;432910;1270;99224;-40
2022/09/03 17:35:56;;;;;;;10.60;5.60;;;;;;;16.33;59.21;98869.33;432838;1270;109041;-40
2022/09/03 17:56:25;;;;;;;10.10;6.80;;;;;;;15.51;60.83;98889.59;432410;1271;112497;-41
2022/09/03 18:06:30;;;;;;;13.50;7.20;;;;;;;15.06;61.63;98893.14;430862;1271;2164792;-42
2022/09/03 20:11:58;;;;;;;10.80;6.20;;;;;;;12.48;67.56;98944.70;432699;1270;109026;-41
2022/09/03 20:22:16;;;;;;;9.00;6.00;;;;;;;12.30;67.98;98943.71;432573;1270;99361;-40
2022/09/03 20:32:45;;;;;;;11.60;8.10;;;;;;;12.14;68.26;98945.88;432556;1270;112258;-40
2022/09/03 20:43:03;;;;;;;17.10;8.60;;;;;;;11.82;68.41;98957.33;432206;1270;108872;-40
2022/09/03 20:53:13;;;;;;;19.00;8.00;;;;;;;11.58;68.95;98956.59;432292;1271;98812;-39
2022/09/03 21:13:35;;;;;;;32.10;8.90;;;;;;;11.38;69.39;98950.75;432295;1271;99945;-40
2022/09/03 21:23:46;;;;;;;18.50;11.50;;;;;;;11.20;69.67;98958.59;432780;1270;112542;-41
2022/09/03 21:33:55;;;;;;;22.20;10.20;;;;;;;10.98;69.83;98963.23;432389;1271;108779;-41
2022/09/03 21:44:00;;;;;;;24.40;10.40;;;;;;;10.72;69.87;98978.35;431941;1271;99253;-42
2022/09/03 21:54:14;;;;;;;20.50;10.30;;;;;;;10.52;70.18;98985.23;432877;1270;108995;-41
2022/09/03 22:04:21;;;;;;;16.20;10.40;;;;;;;10.52;70.62;98989.52;432279;1271;99313;-42
2022/09/03 22:14:35;;;;;;;22.60;12.20;;;;;;;10.63;70.90;98994.11;432178;1271;112467;-41
2022/09/03 22:24:41;;;;;;;21.30;11.90;;;;;;;10.55;71.04;98991.14;432392;1271;109441;-41
2022/09/03 22:35:05;;;;;;;20.50;12.30;;;;;;;10.32;71.29;98983.39;432921;1270;98059;-41
2022/09/03 22:45:15;;;;;;;24.70;11.70;;;;;;;10.18;71.30;98988.21;432982;1270;108934;-42
2022/09/03 23:05:40;;;;;;;14.90;10.00;;;;;;;9.97;71.37;98989.17;432012;1271;112370;-41
2022/09/03 23:36:19;;;;;;;18.90;11.00;;;;;;;9.68;72.26;98984.48;433024;1270;108902;-40
2022/09/03 23:46:55;;;;;;;20.00;11.60;;;;;;;9.72;72.36;98989.99;432131;1271;100881;-40
2022/09/03 23:57:12;;;;;;;16.10;9.60;;;;;;;9.74;72.46;99004.80;432249;1271;112285;-41
